Time;durP1;ratioP1;P1;durP2;ratioP2;P2;SDS_P1;SDS_P2;PMS_P1;PMS_P2;Temp;Humidity;BMP_temperature;BMP_pressure;BME280_temperature;BME280_humidity;BME280_pressure;Samples;Min_cycle;Max_cycle;Signal;HPM_P1;HPM_P2
2021/12/06 00:00:06;;;;;;;63.03;27.57;;;1.70;99.90;;;;;;5033081;28;20887;-52
2021/12/06 00:02:31;;;;;;;57.27;25.20;;;1.70;99.90;;;;;;5032570;28;20899;-52
2021/12/06 00:04:57;;;;;;;62.37;27.13;;;1.70;99.90;;;;;;5032800;28;20440;-53
2021/12/06 00:07:24;;;;;;;66.33;27.77;;;1.70;99.90;;;;;;5033065;28;20207;-53
2021/12/06 00:09:50;;;;;;;64.57;27.83;;;1.70;99.90;;;;;;5024548;28;20206;-53
2021/12/06 00:12:16;;;;;;;68.13;27.23;;;1.70;99.90;;;;;;5032534;28;20998;-52
2021/12/06 00:14:42;;;;;;;58.37;25.30;;;1.70;99.90;;;;;;5029870;28;20469;-53
2021/12/06 00:17:15;;;;;;;55.30;24.83;;;1.70;99.90;;;;;;5013405;28;20442;-52
2021/12/06 00:19:42;;;;;;;56.60;25.73;;;1.70;99.90;;;;;;5023545;28;20193;-53
2021/12/06 00:22:12;;;;;;;52.40;24.80;;;1.70;99.90;;;;;;5032082;28;20434;-52
2021/12/06 00:24:38;;;;;;;58.27;25.70;;;1.70;99.90;;;;;;5033096;28;20433;-53
2021/12/06 00:27:04;;;;;;;55.87;24.57;;;1.80;99.90;;;;;;5032593;28;20504;-52
2021/12/06 00:29:29;;;;;;;55.50;26.57;;;1.80;99.90;;;;;;5032108;28;20617;-52
2021/12/06 00:31:55;;;;;;;53.77;24.10;;;1.80;99.90;;;;;;5032402;28;20444;-52
2021/12/06 00:34:22;;;;;;;55.43;24.47;;;1.70;99.90;;;;;;5031658;28;20199;-52
2021/12/06 00:37:05;;;;;;;55.50;25.57;;;1.70;99.90;;;;;;5032362;28;20210;-52
2021/12/06 00:39:32;;;;;;;56.93;25.60;;;1.70;99.90;;;;;;5032321;28;20432;-52
2021/12/06 00:41:58;;;;;;;54.87;25.40;;;1.70;99.90;;;;;;5031970;28;20434;-53
2021/12/06 00:44:24;;;;;;;62.57;25.37;;;1.70;99.90;;;;;;5031900;28;20433;-53
2021/12/06 00:46:50;;;;;;;56.37;25.00;;;1.70;99.90;;;;;;5032056;28;20433;-52
2021/12/06 00:49:16;;;;;;;53.40;25.83;;;1.70;99.90;;;;;;5032198;28;20237;-51
2021/12/06 00:51:41;;;;;;;53.97;24.97;;;1.70;99.90;;;;;;5031773;28;20469;-52
2021/12/06 00:54:09;;;;;;;54.47;24.03;;;1.70;99.90;;;;;;5031990;28;20612;-53
2021/12/06 00:56:36;;;;;;;49.90;22.97;;;1.70;99.90;;;;;;5031508;28;20358;-52
2021/12/06 00:59:02;;;;;;;54.83;25.93;;;1.70;99.90;;;;;;5017453;28;20429;-53
2021/12/06 01:01:28;;;;;;;53.70;24.73;;;1.70;99.90;;;;;;5031654;28;20927;-53
2021/12/06 01:03:54;;;;;;;58.33;26.23;;;1.70;99.90;;;;;;5031979;28;20222;-53
2021/12/06 01:06:19;;;;;;;54.50;25.00;;;1.70;99.90;;;;;;5031881;28;20571;-53
2021/12/06 01:08:45;;;;;;;63.33;26.70;;;1.60;99.90;;;;;;5031572;28;20707;-59
2021/12/06 01:11:11;;;;;;;52.90;25.10;;;1.60;99.90;;;;;;5031634;28;20203;-52
2021/12/06 01:13:38;;;;;;;56.67;25.90;;;1.60;99.90;;;;;;5031686;28;20269;-53
2021/12/06 01:16:04;;;;;;;49.67;24.60;;;1.60;99.90;;;;;;5032074;28;20940;-53
2021/12/06 01:18:30;;;;;;;57.03;26.10;;;1.60;99.90;;;;;;5031773;28;20563;-53
2021/12/06 01:21:12;;;;;;;54.13;24.33;;;1.60;99.90;;;;;;5031046;28;20524;-53
2021/12/06 01:23:50;;;;;;;52.93;26.00;;;1.60;99.90;;;;;;5026309;28;20431;-52
2021/12/06 01:31:45;;;;;;;58.83;26.10;;;1.60;99.90;;;;;;5030942;28;20789;-53
2021/12/06 01:39:44;;;;;;;57.07;26.13;;;1.50;99.90;;;;;;5031170;28;20437;-53
2021/12/06 01:42:10;;;;;;;55.33;24.43;;;1.40;99.90;;;;;;5030899;28;20418;-51
2021/12/06 01:44:42;;;;;;;62.43;26.03;;;1.40;99.90;;;;;;5030987;28;20199;-51
2021/12/06 01:47:15;;;;;;;52.67;25.87;;;1.50;99.90;;;;;;5031414;28;20903;-51
2021/12/06 01:49:48;;;;;;;58.53;25.50;;;1.50;99.90;;;;;;5031058;28;20966;-51
2021/12/06 01:52:27;;;;;;;53.83;24.00;;;1.50;99.90;;;;;;5030631;28;20969;-51
2021/12/06 01:54:54;;;;;;;57.77;25.90;;;1.50;99.90;;;;;;5030480;28;20477;-51
2021/12/06 01:57:21;;;;;;;48.07;22.83;;;1.50;99.90;;;;;;5030624;28;20425;-51
2021/12/06 01:59:48;;;;;;;51.63;23.47;;;1.40;99.90;;;;;;5029396;28;20551;-51
2021/12/06 02:02:15;;;;;;;50.57;23.30;;;1.30;99.90;;;;;;5030705;28;20461;-51
2021/12/06 02:04:42;;;;;;;57.80;24.40;;;1.40;99.90;;;;;;5030841;28;20492;-50
2021/12/06 02:07:13;;;;;;;52.37;25.73;;;1.30;99.90;;;;;;5030698;28;20982;-50
2021/12/06 02:09:39;;;;;;;56.23;25.80;;;1.20;99.90;;;;;;5030180;28;20445;-53
2021/12/06 02:12:06;;;;;;;56.10;25.57;;;1.20;99.90;;;;;;5030534;28;20524;-50
2021/12/06 02:14:46;;;;;;;53.10;23.83;;;1.20;99.90;;;;;;5030338;28;20441;-50
2021/12/06 02:17:19;;;;;;;51.30;24.50;;;1.20;99.90;;;;;;5030523;28;20448;-50
2021/12/06 02:19:50;;;;;;;52.33;24.33;;;1.20;99.90;;;;;;5030492;28;20437;-50
2021/12/06 02:22:20;;;;;;;48.80;23.30;;;1.20;99.90;;;;;;5030040;28;20918;-50
2021/12/06 02:24:46;;;;;;;45.83;21.77;;;1.20;99.90;;;;;;5030331;28;21010;-51
2021/12/06 02:27:13;;;;;;;54.00;23.93;;;1.20;99.90;;;;;;5030273;28;20465;-49
2021/12/06 02:29:41;;;;;;;57.10;25.47;;;1.20;99.90;;;;;;5030196;28;20429;-50
2021/12/06 02:33:00;;;;;;;57.53;26.60;;;1.20;99.90;;;;;;5030293;28;20430;-50
2021/12/06 02:35:26;;;;;;;49.33;22.23;;;1.20;99.90;;;;;;5030566;28;21004;-50
2021/12/06 02:37:53;;;;;;;51.70;24.40;;;1.20;99.90;;;;;;5030048;28;20509;-51
2021/12/06 02:40:28;;;;;;;54.97;25.33;;;1.10;99.90;;;;;;5029224;28;20436;-50
2021/12/06 02:42:54;;;;;;;53.07;23.60;;;1.10;99.90;;;;;;5029988;28;20515;-50
2021/12/06 02:45:24;;;;;;;48.43;22.40;;;1.00;99.90;;;;;;5030042;28;20445;-50
2021/12/06 02:47:53;;;;;;;55.07;24.30;;;1.00;99.90;;;;;;5029981;28;20608;-49
2021/12/06 02:50:24;;;;;;;55.37;26.40;;;1.00;99.90;;;;;;5014791;28;20477;-50
2021/12/06 02:52:50;;;;;;;45.97;23.83;;;0.90;99.90;;;;;;5029927;28;20527;-50
2021/12/06 02:55:35;;;;;;;52.40;24.70;;;0.80;99.90;;;;;;5012348;28;20900;-49
2021/12/06 02:58:14;;;;;;;47.57;24.30;;;0.80;99.90;;;;;;5030278;28;20806;-49
2021/12/06 03:00:48;;;;;;;43.70;21.67;;;0.80;99.90;;;;;;5030049;28;20798;-49
2021/12/06 03:03:16;;;;;;;43.80;20.50;;;0.70;99.90;;;;;;5029912;28;20516;-49
2021/12/06 03:05:42;;;;;;;56.73;24.10;;;0.70;99.90;;;;;;5029904;28;20930;-49
2021/12/06 03:08:08;;;;;;;52.23;23.43;;;0.60;99.90;;;;;;5029746;28;20436;-50
2021/12/06 03:10:34;;;;;;;56.60;25.90;;;0.60;99.90;;;;;;5029271;28;20195;-53
2021/12/06 03:12:59;;;;;;;51.33;23.60;;;0.50;99.90;;;;;;5029979;28;20253;-50
2021/12/06 03:15:26;;;;;;;43.23;23.03;;;0.50;99.90;;;;;;5029265;28;20957;-49
2021/12/06 03:17:51;;;;;;;61.70;24.80;;;0.50;99.90;;;;;;5030189;28;20199;-53
2021/12/06 03:20:17;;;;;;;53.63;24.67;;;0.40;99.90;;;;;;5029862;28;20507;-49
2021/12/06 03:22:45;;;;;;;55.40;26.13;;;0.30;99.90;;;;;;5030017;28;20226;-49
2021/12/06 03:25:13;;;;;;;55.43;25.33;;;0.30;99.90;;;;;;5029887;28;20195;-49
2021/12/06 03:27:39;;;;;;;52.90;24.40;;;0.20;99.90;;;;;;5029369;28;20509;-48
2021/12/06 03:30:07;;;;;;;66.03;28.30;;;0.20;99.90;;;;;;5028242;28;20962;-48
2021/12/06 03:32:33;;;;;;;60.93;27.20;;;0.20;99.90;;;;;;5029638;28;20470;-53
2021/12/06 03:34:58;;;;;;;52.87;24.90;;;0.20;99.90;;;;;;5029175;28;20512;-54
2021/12/06 03:37:24;;;;;;;52.70;22.97;;;0.20;99.90;;;;;;5029166;28;20191;-54
2021/12/06 03:39:50;;;;;;;52.10;25.13;;;0.20;99.90;;;;;;5028649;28;20252;-53
2021/12/06 03:42:18;;;;;;;53.40;23.93;;;0.20;99.90;;;;;;5029302;28;20274;-53
2021/12/06 03:44:43;;;;;;;52.27;24.13;;;0.10;99.90;;;;;;5029632;28;20769;-53
2021/12/06 03:47:12;;;;;;;61.17;25.00;;;0.10;99.90;;;;;;5029295;28;20810;-53
2021/12/06 03:49:38;;;;;;;60.20;24.70;;;0.10;99.90;;;;;;5028956;28;20233;-53
2021/12/06 03:52:06;;;;;;;54.10;25.53;;;0.00;99.90;;;;;;5029084;28;20923;-54
2021/12/06 03:54:32;;;;;;;59.93;25.47;;;0.00;99.90;;;;;;5032684;28;20484;-54
2021/12/06 03:56:58;;;;;;;60.33;24.80;;;0.00;99.90;;;;;;5032651;28;20441;-54
2021/12/06 03:59:24;;;;;;;60.17;25.60;;;0.00;99.90;;;;;;5032673;28;20191;-53
2021/12/06 04:01:51;;;;;;;54.07;26.13;;;0.10;99.90;;;;;;5032047;28;20430;-54
2021/12/06 04:04:17;;;;;;;58.67;25.80;;;0.10;99.90;;;;;;5032610;28;20426;-53
2021/12/06 04:06:43;;;;;;;51.97;23.83;;;0.10;99.90;;;;;;5032721;28;20430;-54
2021/12/06 04:09:09;;;;;;;60.37;25.90;;;0.10;99.90;;;;;;5032399;28;21036;-53
2021/12/06 04:11:36;;;;;;;55.77;25.60;;;0.20;99.90;;;;;;5032280;28;20448;-54
2021/12/06 04:14:04;;;;;;;51.30;24.10;;;0.10;99.90;;;;;;5032570;28;20206;-54
2021/12/06 04:16:30;;;;;;;56.23;25.60;;;0.20;99.90;;;;;;5031503;28;20465;-54
2021/12/06 04:18:55;;;;;;;54.83;24.80;;;0.20;99.90;;;;;;5031633;28;20445;-53
2021/12/06 04:21:26;;;;;;;67.27;26.70;;;0.20;99.90;;;;;;5032704;28;20787;-54
2021/12/06 04:23:52;;;;;;;56.57;25.73;;;0.30;99.90;;;;;;5031195;28;20202;-54
2021/12/06 04:26:19;;;;;;;52.50;24.47;;;0.30;99.90;;;;;;5032716;28;20418;-54
2021/12/06 04:28:48;;;;;;;60.73;25.60;;;0.30;99.90;;;;;;5031294;28;20473;-53
2021/12/06 04:31:16;;;;;;;56.30;24.87;;;0.30;99.90;;;;;;5027358;28;20430;-55
2021/12/06 04:33:41;;;;;;;64.20;27.47;;;0.30;99.90;;;;;;5015591;28;20785;-53
2021/12/06 04:36:07;;;;;;;47.63;23.70;;;0.30;99.90;;;;;;5032610;28;20484;-54
2021/12/06 04:38:33;;;;;;;56.53;25.77;;;0.30;99.90;;;;;;5032385;28;20211;-55
2021/12/06 04:40:59;;;;;;;57.70;25.30;;;0.20;99.90;;;;;;5031289;28;20543;-54
2021/12/06 04:43:24;;;;;;;53.90;25.20;;;0.20;99.90;;;;;;5032380;28;20583;-54
2021/12/06 04:45:50;;;;;;;50.60;23.33;;;0.20;99.90;;;;;;5031738;28;20195;-54
2021/12/06 04:48:15;;;;;;;58.37;25.80;;;0.20;99.90;;;;;;5031908;28;20299;-53
2021/12/06 04:50:42;;;;;;;51.27;22.57;;;0.20;99.90;;;;;;5030989;28;20626;-56
2021/12/06 04:53:19;;;;;;;42.37;21.63;;;0.20;99.90;;;;;;5032097;28;20187;-54
2021/12/06 04:55:59;;;;;;;52.77;23.00;;;0.20;99.90;;;;;;5031482;28;20485;-54
2021/12/06 04:58:30;;;;;;;49.00;21.27;;;0.30;99.90;;;;;;5031387;28;20446;-53
2021/12/06 05:01:05;;;;;;;44.80;21.10;;;0.30;99.90;;;;;;5031794;28;20559;-53
2021/12/06 05:03:33;;;;;;;46.37;22.00;;;0.30;99.90;;;;;;5030447;28;20429;-53
2021/12/06 05:06:06;;;;;;;50.90;22.63;;;0.30;99.90;;;;;;5031430;28;20925;-53
2021/12/06 05:08:36;;;;;;;62.93;23.80;;;0.40;99.90;;;;;;5031361;28;20438;-54
2021/12/06 05:11:05;;;;;;;48.37;22.10;;;0.40;99.90;;;;;;5031459;28;20802;-54
2021/12/06 05:13:33;;;;;;;43.50;20.03;;;0.50;99.90;;;;;;5013609;28;20430;-57
2021/12/06 05:15:59;;;;;;;42.30;19.10;;;0.50;99.90;;;;;;5031704;28;20547;-55
2021/12/06 05:18:24;;;;;;;40.40;18.83;;;0.60;99.90;;;;;;5031152;28;20445;-49
2021/12/06 05:20:51;;;;;;;37.63;17.87;;;0.80;99.90;;;;;;5031610;28;20718;-52
2021/12/06 05:23:17;;;;;;;39.50;18.17;;;0.80;99.90;;;;;;5031299;28;20426;-49
2021/12/06 05:25:43;;;;;;;43.50;17.83;;;0.90;99.90;;;;;;5030890;28;20449;-49
2021/12/06 05:28:09;;;;;;;41.13;19.03;;;1.00;99.90;;;;;;5031361;28;20410;-49
2021/12/06 05:30:37;;;;;;;43.33;19.20;;;1.00;99.90;;;;;;5029830;28;20198;-49
2021/12/06 05:33:04;;;;;;;41.60;19.10;;;1.00;99.90;;;;;;5031541;28;20687;-48
2021/12/06 05:35:29;;;;;;;35.73;18.43;;;1.00;99.90;;;;;;5030806;28;20477;-49
2021/12/06 05:37:57;;;;;;;37.57;17.77;;;1.00;99.90;;;;;;5030832;28;20430;-49
2021/12/06 05:40:31;;;;;;;38.47;17.13;;;1.00;99.90;;;;;;5030605;28;20250;-49
2021/12/06 05:42:58;;;;;;;43.07;17.60;;;1.10;99.90;;;;;;5031156;28;20927;-49
2021/12/06 05:45:27;;;;;;;43.10;18.63;;;1.10;99.90;;;;;;5030515;28;20517;-49
2021/12/06 05:47:54;;;;;;;36.77;17.30;;;1.10;99.90;;;;;;5031104;28;20429;-50
2021/12/06 05:50:20;;;;;;;38.23;17.80;;;1.10;99.90;;;;;;5030507;28;20437;-50
2021/12/06 05:52:46;;;;;;;38.70;17.67;;;1.10;99.90;;;;;;5030952;28;20495;-50
2021/12/06 05:55:13;;;;;;;41.03;17.00;;;1.20;99.90;;;;;;5030778;28;20485;-51
2021/12/06 05:57:40;;;;;;;36.60;17.60;;;1.20;99.90;;;;;;5030955;28;20422;-50
2021/12/06 06:00:10;;;;;;;34.77;17.43;;;1.20;99.90;;;;;;5030132;28;20437;-49
2021/12/06 06:02:35;;;;;;;34.67;16.90;;;1.20;99.90;;;;;;5030848;28;20685;-50
2021/12/06 06:05:01;;;;;;;36.53;16.23;;;1.30;99.90;;;;;;5030597;28;20698;-50
2021/12/06 06:07:27;;;;;;;37.13;16.70;;;1.30;99.90;;;;;;5030498;28;20198;-49
2021/12/06 06:09:52;;;;;;;45.63;18.13;;;1.20;99.90;;;;;;5029765;28;20237;-50
2021/12/06 06:12:18;;;;;;;39.47;17.77;;;1.20;99.90;;;;;;5029471;28;20285;-50
2021/12/06 06:14:43;;;;;;;36.90;17.17;;;1.20;99.90;;;;;;5028616;28;20203;-53
2021/12/06 06:17:13;;;;;;;36.70;17.07;;;1.30;99.90;;;;;;5028626;28;20195;-53
2021/12/06 06:19:43;;;;;;;39.30;16.87;;;1.20;99.90;;;;;;5031068;28;20248;-53
2021/12/06 06:22:09;;;;;;;37.63;16.97;;;1.30;99.90;;;;;;5029857;28;20422;-53
2021/12/06 06:24:34;;;;;;;38.53;16.33;;;1.20;99.90;;;;;;5030256;28;20422;-54
2021/12/06 06:27:00;;;;;;;35.63;16.80;;;1.30;99.90;;;;;;5030347;28;20195;-52
2021/12/06 06:29:25;;;;;;;36.23;15.67;;;1.30;99.90;;;;;;5030639;28;20222;-54
2021/12/06 06:31:51;;;;;;;41.20;17.87;;;1.30;99.90;;;;;;5029202;28;20195;-53
2021/12/06 06:34:16;;;;;;;35.90;16.27;;;1.30;99.90;;;;;;5028776;28;20273;-53
2021/12/06 06:36:42;;;;;;;33.73;16.40;;;1.30;99.90;;;;;;5028576;28;20676;-53
2021/12/06 06:39:10;;;;;;;39.10;17.90;;;1.30;99.90;;;;;;5030375;28;20199;-53
2021/12/06 06:41:35;;;;;;;36.20;16.40;;;1.30;99.90;;;;;;5030353;28;20217;-52
2021/12/06 06:44:02;;;;;;;35.80;16.47;;;1.30;99.90;;;;;;5029990;28;20426;-53
2021/12/06 06:46:28;;;;;;;33.37;16.00;;;1.30;99.90;;;;;;5030321;28;20315;-53
2021/12/06 06:48:54;;;;;;;34.93;16.47;;;1.30;99.90;;;;;;5029128;28;20942;-54
2021/12/06 06:51:20;;;;;;;38.47;15.87;;;1.40;99.90;;;;;;5030416;28;20644;-53
2021/12/06 06:53:46;;;;;;;33.80;16.30;;;1.30;99.90;;;;;;5030063;28;20453;-52
2021/12/06 06:56:11;;;;;;;36.77;15.20;;;1.30;99.90;;;;;;5030104;28;20226;-53
2021/12/06 06:58:37;;;;;;;36.47;15.80;;;1.30;99.90;;;;;;5029268;28;20215;-53
2021/12/06 07:01:03;;;;;;;38.23;16.67;;;1.40;99.90;;;;;;5030278;28;20261;-53
2021/12/06 07:03:31;;;;;;;35.70;16.40;;;1.30;99.90;;;;;;5029282;28;20641;-53
2021/12/06 07:06:01;;;;;;;34.87;16.70;;;1.30;99.90;;;;;;5029553;28;20274;-53
2021/12/06 07:08:27;;;;;;;32.63;16.30;;;1.40;99.90;;;;;;5030217;28;20536;-53
2021/12/06 07:10:54;;;;;;;34.97;16.47;;;1.40;99.90;;;;;;5029595;28;20426;-53
2021/12/06 07:13:21;;;;;;;36.93;15.60;;;1.40;99.90;;;;;;5029313;28;20433;-54
2021/12/06 07:15:47;;;;;;;30.70;14.77;;;1.40;99.90;;;;;;5029951;28;20959;-53
2021/12/06 07:18:13;;;;;;;35.53;16.20;;;1.30;99.90;;;;;;5029964;28;20927;-52
2021/12/06 07:20:38;;;;;;;34.87;15.50;;;1.40;99.90;;;;;;5030060;28;20433;-53
2021/12/06 07:23:05;;;;;;;36.37;16.77;;;1.40;99.90;;;;;;5027646;28;20198;-53
2021/12/06 07:25:31;;;;;;;33.67;15.43;;;1.30;99.90;;;;;;5029312;28;20206;-53
2021/12/06 07:27:58;;;;;;;34.30;14.87;;;1.30;99.90;;;;;;5031517;28;20438;-53
2021/12/06 07:30:24;;;;;;;33.03;16.83;;;1.30;99.90;;;;;;5030030;28;20441;-53
2021/12/06 07:32:51;;;;;;;33.80;15.57;;;1.30;99.90;;;;;;5023957;28;20837;-52
2021/12/06 07:35:17;;;;;;;29.40;14.30;;;1.30;99.90;;;;;;5030945;28;20306;-53
2021/12/06 07:37:44;;;;;;;30.77;14.73;;;1.30;99.90;;;;;;5030516;28;20525;-53
2021/12/06 07:40:11;;;;;;;28.90;14.63;;;1.30;99.90;;;;;;5052659;28;20174;-52
2021/12/06 07:42:37;;;;;;;33.83;15.37;;;1.30;99.90;;;;;;5033242;28;20500;-53
2021/12/06 07:45:06;;;;;;;34.00;15.40;;;1.30;99.90;;;;;;5032407;28;20915;-53
2021/12/06 07:47:32;;;;;;;32.70;16.17;;;1.30;99.90;;;;;;5032914;28;20858;-53
2021/12/06 07:49:58;;;;;;;37.70;16.77;;;1.30;99.90;;;;;;5033121;28;20437;-53
2021/12/06 07:52:23;;;;;;;40.13;16.00;;;1.30;99.90;;;;;;5033122;28;20502;-53
2021/12/06 07:54:49;;;;;;;37.20;16.63;;;1.30;99.90;;;;;;5032365;28;20317;-53
2021/12/06 07:57:14;;;;;;;42.50;16.00;;;1.30;99.90;;;;;;5033122;28;20187;-53
2021/12/06 07:59:41;;;;;;;31.53;14.30;;;1.40;99.90;;;;;;5032143;28;20238;-53
2021/12/06 08:02:08;;;;;;;28.87;14.83;;;1.40;99.90;;;;;;5031441;28;20191;-57
2021/12/06 08:04:34;;;;;;;27.00;14.40;;;1.30;99.90;;;;;;5032447;28;20430;-53
2021/12/06 08:07:00;;;;;;;32.47;15.20;;;1.40;99.90;;;;;;5031770;28;20468;-54
2021/12/06 08:09:26;;;;;;;30.80;14.10;;;1.40;99.90;;;;;;5032804;28;20438;-54
2021/12/06 08:11:52;;;;;;;31.03;15.13;;;1.40;99.90;;;;;;5033001;28;20206;-54
2021/12/06 08:14:19;;;;;;;26.73;13.60;;;1.40;99.90;;;;;;5031184;28;20206;-54
2021/12/06 08:16:45;;;;;;;28.60;14.40;;;1.50;99.90;;;;;;5032958;28;20219;-54
2021/12/06 08:19:12;;;;;;;30.03;14.83;;;1.50;99.90;;;;;;5032825;28;20487;-53
2021/12/06 08:21:39;;;;;;;28.33;15.20;;;1.50;99.90;;;;;;5035803;28;20197;-53
2021/12/06 08:24:06;;;;;;;26.40;13.80;;;1.60;99.90;;;;;;5038069;28;20441;-53
2021/12/06 08:26:39;;;;;;;31.20;13.80;;;1.60;99.90;;;;;;5032363;28;20805;-54
2021/12/06 08:29:06;;;;;;;28.80;14.90;;;1.60;99.90;;;;;;5033817;28;20448;-54
2021/12/06 08:31:34;;;;;;;31.10;14.33;;;1.50;99.90;;;;;;5032525;28;20939;-54
2021/12/06 08:34:00;;;;;;;25.63;12.93;;;1.50;99.90;;;;;;5032516;28;20430;-54
2021/12/06 08:36:26;;;;;;;26.30;14.00;;;1.50;99.90;;;;;;5031378;28;20990;-54
2021/12/06 08:38:52;;;;;;;27.33;13.77;;;1.50;99.90;;;;;;5032493;28;20479;-53
2021/12/06 08:41:25;;;;;;;29.00;15.37;;;1.60;99.90;;;;;;5034022;28;20426;-54
2021/12/06 08:43:53;;;;;;;30.67;14.27;;;1.60;99.90;;;;;;5032270;28;20929;-52
2021/12/06 08:46:31;;;;;;;30.27;14.70;;;1.60;99.90;;;;;;5040346;28;20441;-53
2021/12/06 08:48:57;;;;;;;25.67;12.53;;;1.70;97.30;;;;;;5042336;28;20942;-53
2021/12/06 08:51:27;;;;;;;27.07;14.23;;;1.70;94.90;;;;;;5031239;28;20430;-53
2021/12/06 08:53:54;;;;;;;27.73;13.50;;;1.70;90.90;;;;;;5031882;28;20438;-54
2021/12/06 08:56:21;;;;;;;29.10;13.80;;;1.60;76.50;;;;;;5031973;28;20477;-54
2021/12/06 08:58:47;;;;;;;30.03;13.90;;;1.70;90.40;;;;;;5031828;28;20441;-55
2021/12/06 09:01:13;;;;;;;26.80;13.97;;;1.70;85.80;;;;;;5030371;28;20776;-55
2021/12/06 09:03:38;;;;;;;27.43;13.50;;;1.70;80.90;;;;;;5030819;28;20583;-55
2021/12/06 09:06:07;;;;;;;25.20;13.00;;;1.60;73.90;;;;;;5031602;28;20465;-54
2021/12/06 09:08:34;;;;;;;25.97;13.50;;;1.70;70.70;;;;;;5031170;28;20198;-55
2021/12/06 09:11:00;;;;;;;26.60;13.50;;;1.80;65.70;;;;;;5030804;28;20529;-55
2021/12/06 09:13:28;;;;;;;26.90;14.90;;;1.70;55.60;;;;;;5031955;28;20525;-55
2021/12/06 09:15:56;;;;;;;27.47;14.40;;;1.70;64.10;;;;;;5030801;28;20593;-55
2021/12/06 09:18:23;;;;;;;28.40;14.53;;;1.70;61.50;;;;;;5031657;28;20471;-55
2021/12/06 09:20:50;;;;;;;25.80;13.57;;;1.80;56.90;;;;;;5031649;28;20429;-55
2021/12/06 09:23:16;;;;;;;27.20;14.10;;;1.80;46.10;;;;;;5031179;28;20485;-55
2021/12/06 09:25:44;;;;;;;26.80;13.53;;;1.90;54.20;;;;;;5031764;28;20500;-54
2021/12/06 09:28:10;;;;;;;26.77;13.37;;;1.90;55.50;;;;;;5030456;28;21222;-53
2021/12/06 09:30:36;;;;;;;30.33;14.53;;;1.90;46.90;;;;;;5030430;28;20426;-55
2021/12/06 09:33:06;;;;;;;27.97;15.00;;;2.00;54.20;;;;;;5037467;28;20442;-56
2021/12/06 09:35:35;;;;;;;28.27;14.37;;;2.00;30.00;;;;;;5030246;28;20473;-55
2021/12/06 09:38:01;;;;;;;27.93;14.60;;;2.10;12.70;;;;;;5030267;28;20434;-56
2021/12/06 09:40:29;;;;;;;28.90;13.87;;;2.10;1.00;;;;;;5020305;28;20953;-59
2021/12/06 09:42:58;;;;;;;25.77;13.67;;;2.10;1.00;;;;;;5031240;28;20187;-57
2021/12/06 09:45:26;;;;;;;30.73;14.07;;;2.10;1.00;;;;;;5029909;28;20441;-56
2021/12/06 09:47:53;;;;;;;31.10;16.00;;;2.10;1.00;;;;;;5030646;28;20524;-57
2021/12/06 09:50:27;;;;;;;28.70;14.07;;;2.10;1.00;;;;;;5021886;28;20509;-57
2021/12/06 09:52:57;;;;;;;31.33;16.60;;;2.10;1.00;;;;;;5013678;28;20438;-57
2021/12/06 09:55:25;;;;;;;32.97;16.43;;;2.30;1.00;;;;;;5031166;28;20547;-57
2021/12/06 09:57:51;;;;;;;34.07;16.60;;;2.30;1.00;;;;;;5031612;28;20524;-58
2021/12/06 10:00:20;;;;;;;36.77;16.97;;;2.40;1.00;;;;;;5030793;28;20520;-58
2021/12/06 10:02:47;;;;;;;35.73;18.17;;;2.50;1.00;;;;;;5030002;28;20245;-58
2021/12/06 10:05:13;;;;;;;32.47;17.00;;;2.50;1.00;;;;;;5030100;28;20474;-56
2021/12/06 10:07:39;;;;;;;38.17;18.40;;;2.70;1.00;;;;;;5027314;28;20473;-57
2021/12/06 10:10:07;;;;;;;38.27;20.03;;;2.80;1.00;;;;;;5030286;28;20194;-58
2021/12/06 10:12:34;;;;;;;38.17;18.60;;;2.80;1.00;;;;;;5029510;28;20183;-57
2021/12/06 10:15:03;;;;;;;35.53;17.40;;;2.80;1.00;;;;;;5020275;28;20879;-62
2021/12/06 10:17:28;;;;;;;35.70;17.73;;;2.80;1.00;;;;;;5031581;28;20418;-58
2021/12/06 10:19:54;;;;;;;34.37;18.27;;;2.80;1.00;;;;;;5031171;28;20472;-58
2021/12/06 10:22:21;;;;;;;35.77;18.37;;;2.90;1.00;;;;;;5030849;28;20203;-57
2021/12/06 10:24:57;;;;;;;38.63;18.67;;;2.90;1.00;;;;;;5030806;28;20190;-58
2021/12/06 10:27:24;;;;;;;37.07;18.33;;;3.00;1.00;;;;;;5030470;28;20495;-58
2021/12/06 10:29:59;;;;;;;35.40;18.43;;;3.00;1.00;;;;;;5018326;28;20493;-58
2021/12/06 10:32:27;;;;;;;37.57;18.17;;;2.80;1.00;;;;;;5023260;28;20442;-57
2021/12/06 10:35:01;;;;;;;35.13;18.80;;;2.60;1.00;;;;;;5023565;28;20429;-56
2021/12/06 10:37:45;;;;;;;39.70;19.67;;;2.60;1.00;;;;;;5029327;28;20530;-57
2021/12/06 10:40:18;;;;;;;45.13;20.70;;;2.50;1.00;;;;;;5030102;28;20434;-58
2021/12/06 10:42:46;;;;;;;51.30;22.60;;;2.60;1.00;;;;;;5016642;28;20441;-56
2021/12/06 10:45:15;;;;;;;39.23;19.23;;;2.50;1.00;;;;;;5017744;28;20440;-57
2021/12/06 10:47:43;;;;;;;43.03;21.17;;;2.30;1.00;;;;;;5022624;28;20441;-56
2021/12/06 10:50:19;;;;;;;46.13;22.50;;;2.10;1.00;;;;;;5030994;28;20429;-59
2021/12/06 10:52:49;;;;;;;47.23;22.27;;;2.10;1.00;;;;;;5030913;28;20443;-56
2021/12/06 10:55:15;;;;;;;44.40;21.43;;;2.10;1.00;;;;;;5030345;28;20993;-57
2021/12/06 10:57:50;;;;;;;46.03;22.10;;;2.00;1.00;;;;;;5030178;28;20430;-57
2021/12/06 11:00:34;;;;;;;50.27;23.17;;;2.00;1.00;;;;;;5030150;28;20447;-57
2021/12/06 11:03:01;;;;;;;50.60;22.73;;;2.00;1.00;;;;;;5031981;28;20409;-57
2021/12/06 11:05:30;;;;;;;52.57;23.43;;;2.10;1.00;;;;;;5034288;28;20417;-57
2021/12/06 11:08:15;;;;;;;47.53;23.83;;;2.10;1.00;;;;;;5034281;28;20429;-57
2021/12/06 11:10:54;;;;;;;49.77;23.23;;;2.10;1.00;;;;;;5034222;28;20426;-57
2021/12/06 11:13:23;;;;;;;50.33;24.67;;;2.10;1.00;;;;;;5034190;28;20930;-56
2021/12/06 11:16:10;;;;;;;54.23;22.50;;;2.10;1.00;;;;;;5034067;28;20981;-56
2021/12/06 11:18:39;;;;;;;48.70;23.77;;;2.10;1.00;;;;;;5034045;28;20919;-58
2021/12/06 11:21:17;;;;;;;51.40;23.43;;;2.00;1.00;;;;;;5033898;28;20817;-56
2021/12/06 11:24:05;;;;;;;50.47;24.77;;;1.90;1.00;;;;;;5034217;28;20413;-56
2021/12/06 11:26:32;;;;;;;53.80;23.47;;;1.90;1.00;;;;;;5032859;28;20461;-58
2021/12/06 11:29:28;;;;;;;52.57;24.07;;;1.90;1.00;;;;;;5033935;28;20518;-57
2021/12/06 11:31:59;;;;;;;57.83;24.63;;;1.80;1.00;;;;;;5019551;28;20438;-55
2021/12/06 11:34:49;;;;;;;54.20;25.07;;;1.80;1.00;;;;;;5033634;28;20429;-51
2021/12/06 11:37:17;;;;;;;54.63;25.60;;;1.80;1.00;;;;;;5028180;28;20449;-51
2021/12/06 11:39:45;;;;;;;55.80;23.70;;;1.70;1.00;;;;;;5032260;28;20862;-51
2021/12/06 11:42:10;;;;;;;48.57;24.10;;;1.70;1.00;;;;;;5033485;28;20418;-51
2021/12/06 11:44:42;;;;;;;51.43;25.27;;;1.70;1.00;;;;;;5032862;28;20440;-52
2021/12/06 11:47:14;;;;;;;57.30;25.07;;;1.70;1.00;;;;;;5033657;28;20541;-51
2021/12/06 11:49:46;;;;;;;52.50;24.40;;;1.70;1.00;;;;;;5033599;28;20441;-51
2021/12/06 11:52:18;;;;;;;51.40;24.10;;;1.60;1.00;;;;;;5033467;28;20421;-53
2021/12/06 11:54:49;;;;;;;56.50;25.50;;;1.70;1.00;;;;;;5033083;28;20935;-51
2021/12/06 11:57:27;;;;;;;45.17;22.60;;;1.70;1.00;;;;;;5032108;28;20441;-51
2021/12/06 11:59:58;;;;;;;50.43;23.10;;;1.70;1.00;;;;;;5033454;28;20410;-57
2021/12/06 12:02:29;;;;;;;55.67;24.03;;;1.70;1.00;;;;;;5033386;28;20413;-57
2021/12/06 12:05:21;;;;;;;54.10;24.57;;;1.80;1.00;;;;;;5033361;28;20449;-57
2021/12/06 12:08:06;;;;;;;53.73;23.60;;;1.70;1.00;;;;;;5033428;28;20410;-57
2021/12/06 12:10:39;;;;;;;53.90;24.00;;;1.80;1.00;;;;;;5032799;28;20434;-57
2021/12/06 12:13:06;;;;;;;53.87;24.73;;;1.80;1.00;;;;;;5027959;28;20437;-58
2021/12/06 12:15:32;;;;;;;56.20;25.67;;;1.80;1.00;;;;;;5013262;28;20450;-58
2021/12/06 12:17:58;;;;;;;56.97;27.40;;;1.80;1.00;;;;;;5013091;28;20411;-57
2021/12/06 12:20:24;;;;;;;57.00;26.30;;;1.80;1.00;;;;;;5013128;28;20414;-57
2021/12/06 12:22:54;;;;;;;63.30;26.43;;;1.80;1.00;;;;;;5013198;28;20453;-57
2021/12/06 12:25:26;;;;;;;56.37;25.80;;;1.80;1.00;;;;;;5013260;28;20426;-58
2021/12/06 12:28:01;;;;;;;56.40;26.13;;;1.80;1.00;;;;;;5012724;28;20430;-57
2021/12/06 12:30:32;;;;;;;53.67;26.07;;;1.80;1.00;;;;;;5012683;28;20450;-57
2021/12/06 12:33:02;;;;;;;55.50;27.73;;;1.70;1.00;;;;;;5013060;28;20418;-57
2021/12/06 12:35:30;;;;;;;60.07;26.30;;;1.70;1.00;;;;;;5025272;28;20466;-57
2021/12/06 12:37:58;;;;;;;62.83;27.23;;;1.80;1.00;;;;;;5028799;28;20504;-57
2021/12/06 12:40:27;;;;;;;66.87;27.07;;;1.80;1.00;;;;;;5029987;28;20437;-58
2021/12/06 12:43:00;;;;;;;58.43;25.60;;;1.70;1.00;;;;;;5019118;28;20438;-57
2021/12/06 12:45:56;;;;;;;56.80;25.70;;;1.70;1.00;;;;;;5031937;28;20851;-58
2021/12/06 12:48:26;;;;;;;56.20;25.40;;;1.70;1.00;;;;;;5008340;28;20435;-58
2021/12/06 12:51:30;;;;;;;58.20;24.50;;;1.70;1.00;;;;;;5023086;28;20834;-58
2021/12/06 12:54:18;;;;;;;50.47;23.10;;;1.60;1.00;;;;;;4955069;28;20448;-57
2021/12/06 12:57:05;;;;;;;53.13;23.33;;;1.60;1.00;;;;;;4951434;29;20567;-58